createdAt,value
2018-04-30T00:00:09.216Z,23.43
2018-04-30T00:02:35.580Z,23.43
2018-04-30T00:05:01.931Z,23.40
2018-04-30T00:07:28.282Z,23.40
2018-04-30T00:09:54.599Z,23.41
2018-04-30T00:12:20.913Z,23.41
2018-04-30T00:14:47.318Z,23.35
2018-04-30T00:17:13.674Z,23.32
2018-04-30T00:19:40.012Z,23.36
2018-04-30T00:22:06.321Z,23.32
2018-04-30T00:24:32.650Z,23.32
2018-04-30T00:26:58.980Z,23.37
2018-04-30T00:29:25.360Z,23.30
2018-04-30T00:31:51.754Z,23.29
2018-04-30T00:34:18.090Z,23.31
2018-04-30T00:36:44.444Z,23.32
2018-04-30T00:39:10.781Z,23.25
2018-04-30T00:41:37.172Z,23.30
2018-04-30T00:44:03.504Z,23.34
2018-04-30T00:46:29.887Z,23.27
2018-04-30T00:51:28.700Z,23.29
2018-04-30T00:53:55.031Z,23.23
2018-04-30T00:56:21.384Z,23.21
2018-04-30T00:58:47.709Z,23.17
2018-04-30T01:01:14.016Z,23.23
2018-04-30T01:03:40.324Z,23.28
2018-04-30T01:06:06.689Z,23.30
2018-04-30T01:08:33.304Z,23.06
2018-04-30T01:10:59.637Z,22.87
2018-04-30T01:13:26.020Z,22.94
2018-04-30T01:15:52.428Z,22.91
2018-04-30T01:18:18.747Z,22.99
2018-04-30T01:20:45.072Z,22.81
2018-04-30T01:23:11.399Z,22.78
2018-04-30T01:25:37.736Z,22.70
2018-04-30T01:28:04.048Z,22.84
2018-04-30T01:30:30.387Z,22.71
2018-04-30T01:32:56.786Z,22.69
2018-04-30T01:35:23.115Z,22.87
2018-04-30T01:37:49.464Z,22.91
2018-04-30T01:40:15.785Z,22.88
2018-04-30T01:42:42.103Z,22.87
2018-04-30T01:45:08.425Z,22.83
2018-04-30T01:47:34.749Z,22.90
2018-04-30T01:50:01.125Z,22.62
2018-04-30T01:52:27.491Z,22.60
2018-04-30T01:54:53.817Z,22.62
2018-04-30T01:57:20.141Z,22.64
2018-04-30T01:59:46.585Z,22.70
2018-04-30T02:02:12.919Z,22.72
2018-04-30T02:04:39.435Z,22.56
2018-04-30T02:07:06.177Z,22.67
2018-04-30T02:09:32.554Z,22.68
2018-04-30T02:14:31.160Z,22.68
2018-04-30T02:16:57.597Z,22.67
2018-04-30T02:19:23.917Z,22.71
2018-04-30T02:21:50.248Z,22.61
2018-04-30T02:24:16.645Z,22.65
2018-04-30T02:26:43.013Z,22.61
2018-04-30T02:29:09.457Z,22.60
2018-04-30T02:31:35.985Z,22.60
2018-04-30T02:34:02.518Z,22.51
2018-04-30T02:36:28.865Z,22.51
2018-04-30T02:38:55.204Z,22.58
2018-04-30T02:41:21.677Z,22.58
2018-04-30T02:43:48.016Z,22.52
2018-04-30T02:46:14.393Z,22.44
2018-04-30T02:48:40.733Z,22.44
2018-04-30T02:51:07.165Z,22.53
2018-04-30T02:53:33.486Z,22.55
2018-04-30T02:55:59.891Z,22.48
2018-04-30T02:58:26.337Z,22.46
2018-04-30T03:00:52.758Z,22.46
2018-04-30T03:03:19.135Z,22.43
2018-04-30T03:05:45.517Z,22.48
2018-04-30T03:08:11.935Z,22.53
2018-04-30T03:10:38.308Z,22.48
2018-04-30T03:13:04.702Z,22.42
2018-04-30T03:15:31.063Z,22.43
2018-04-30T03:17:57.536Z,22.41
2018-04-30T03:20:23.893Z,22.41
2018-04-30T03:22:50.261Z,22.42
2018-04-30T03:25:16.769Z,22.43
2018-04-30T03:27:43.161Z,22.40
2018-04-30T03:30:09.540Z,22.41
2018-04-30T03:32:35.946Z,22.48
2018-04-30T03:35:02.373Z,22.47
2018-04-30T03:37:28.722Z,22.51
2018-04-30T03:39:55.111Z,22.51
2018-04-30T03:42:21.747Z,22.54
2018-04-30T03:44:48.069Z,22.55
2018-04-30T03:47:14.440Z,22.68
2018-04-30T03:49:41.001Z,22.61
2018-04-30T03:52:07.353Z,22.58
2018-04-30T03:54:33.696Z,22.71
2018-04-30T03:57:00.081Z,22.71
2018-04-30T03:59:26.602Z,22.69
2018-04-30T04:01:52.949Z,22.72
2018-04-30T04:04:19.392Z,22.84
2018-04-30T04:06:45.749Z,22.81
2018-04-30T04:09:12.133Z,22.84
2018-04-30T04:11:38.560Z,22.84
2018-04-30T04:14:04.991Z,22.90
2018-04-30T04:16:31.375Z,22.93
2018-04-30T04:18:57.906Z,22.96
2018-04-30T04:21:24.277Z,23.08
2018-04-30T04:23:50.984Z,23.13
2018-04-30T04:26:17.696Z,23.26
2018-04-30T04:28:44.077Z,23.27
2018-04-30T04:31:10.422Z,23.22
2018-04-30T04:33:37.244Z,23.38
2018-04-30T04:36:03.677Z,23.52
2018-04-30T04:38:30.013Z,23.41
2018-04-30T04:40:56.420Z,23.53
2018-04-30T04:43:22.741Z,23.58
2018-04-30T04:45:49.105Z,23.64
2018-04-30T04:48:15.564Z,23.70
2018-04-30T04:50:41.936Z,23.69
2018-04-30T04:53:08.250Z,23.67
2018-04-30T04:55:34.610Z,23.68
2018-04-30T04:58:00.955Z,23.72
2018-04-30T05:00:27.344Z,23.73
2018-04-30T05:02:53.700Z,23.77
2018-04-30T05:05:20.058Z,23.74
2018-04-30T05:07:46.420Z,23.74
2018-04-30T05:10:12.774Z,23.73
2018-04-30T05:12:39.121Z,23.83
2018-04-30T05:15:05.433Z,23.79
2018-04-30T05:17:31.804Z,23.76
2018-04-30T05:19:58.292Z,23.82
2018-04-30T05:22:24.665Z,23.82
2018-04-30T05:24:51.028Z,23.81
2018-04-30T05:27:17.406Z,23.80
2018-04-30T05:29:43.792Z,23.87
2018-04-30T05:32:10.172Z,23.81
2018-04-30T05:34:36.510Z,23.85
2018-04-30T05:37:02.869Z,23.85
2018-04-30T05:39:29.236Z,23.95
2018-04-30T05:41:55.557Z,24.02
2018-04-30T05:44:22.028Z,23.98
2018-04-30T05:46:48.356Z,24.03
2018-04-30T05:49:14.672Z,24.05
2018-04-30T05:51:41.032Z,24.05
2018-04-30T05:54:07.405Z,24.14
2018-04-30T05:56:34.026Z,24.02
2018-04-30T05:59:00.425Z,24.09
2018-04-30T06:01:26.787Z,24.06
2018-04-30T06:03:53.189Z,24.16
2018-04-30T06:06:19.625Z,24.16
2018-04-30T06:08:46.074Z,24.15
2018-04-30T06:11:12.431Z,24.20
2018-04-30T06:13:38.784Z,24.13
2018-04-30T06:16:05.180Z,24.16
2018-04-30T06:18:31.559Z,24.20
2018-04-30T06:20:57.982Z,24.24
2018-04-30T06:23:24.334Z,24.33
2018-04-30T06:25:50.741Z,24.24
2018-04-30T06:28:17.140Z,24.23
2018-04-30T06:30:43.479Z,24.21
2018-04-30T06:33:09.844Z,24.27
2018-04-30T06:35:36.196Z,24.31
2018-04-30T06:38:02.640Z,24.31
2018-04-30T06:40:29.069Z,24.36
2018-04-30T06:42:55.470Z,24.38
2018-04-30T06:45:21.872Z,24.36
2018-04-30T06:47:48.228Z,24.42
2018-04-30T06:50:14.571Z,24.47
2018-04-30T06:52:40.953Z,24.49
2018-04-30T06:55:07.316Z,24.48
2018-04-30T06:57:33.692Z,24.53
2018-04-30T07:00:00.078Z,24.62
2018-04-30T07:02:26.415Z,24.54
2018-04-30T07:04:52.847Z,24.55
2018-04-30T07:07:19.254Z,24.57
2018-04-30T07:09:45.691Z,24.56
2018-04-30T07:12:12.052Z,24.60
2018-04-30T07:14:38.420Z,24.74
2018-04-30T07:17:04.790Z,24.62
2018-04-30T07:19:31.124Z,24.68
2018-04-30T07:21:57.500Z,24.71
2018-04-30T07:24:23.886Z,24.73
2018-04-30T07:26:50.877Z,24.75
2018-04-30T07:29:17.349Z,24.84
2018-04-30T07:31:43.747Z,24.98
2018-04-30T07:34:10.114Z,24.89
2018-04-30T07:36:36.451Z,24.90
2018-04-30T07:39:02.881Z,24.87
2018-04-30T07:41:29.162Z,24.85
2018-04-30T07:43:55.544Z,24.85
2018-04-30T07:46:21.886Z,24.92
2018-04-30T07:48:48.291Z,24.99
2018-04-30T07:51:14.658Z,24.93
2018-04-30T07:53:41.113Z,25.01
2018-04-30T07:56:07.457Z,25.01
2018-04-30T07:58:33.853Z,24.95
2018-04-30T08:01:00.296Z,25.03
2018-04-30T08:03:26.684Z,25.01
2018-04-30T08:05:53.051Z,25.04
2018-04-30T08:08:19.503Z,25.05
2018-04-30T08:10:45.836Z,25.06
2018-04-30T08:13:12.257Z,25.03
2018-04-30T08:15:38.630Z,25.07
2018-04-30T08:18:05.003Z,25.13
2018-04-30T08:20:31.404Z,25.06
2018-04-30T08:22:57.801Z,25.13
2018-04-30T08:25:24.232Z,25.15
2018-04-30T08:27:50.649Z,25.20
2018-04-30T08:30:17.013Z,25.27
2018-04-30T08:32:43.393Z,25.14
2018-04-30T08:35:09.773Z,25.08
2018-04-30T08:37:36.144Z,25.14
2018-04-30T08:40:02.487Z,25.19
2018-04-30T08:42:28.864Z,25.12
2018-04-30T08:44:55.231Z,25.27
2018-04-30T08:47:21.861Z,25.10
2018-04-30T08:49:48.255Z,25.02
2018-04-30T08:52:14.644Z,25.01
2018-04-30T08:54:41.020Z,25.04
2018-04-30T08:57:07.380Z,24.98
2018-04-30T08:59:33.820Z,25.01
2018-04-30T09:02:00.191Z,24.97
2018-04-30T09:04:26.607Z,24.98
2018-04-30T09:06:53.187Z,24.90
2018-04-30T09:09:19.664Z,24.91
2018-04-30T09:11:46.150Z,25.12
2018-04-30T09:14:12.591Z,25.01
2018-04-30T09:16:39.233Z,24.94
2018-04-30T09:19:05.769Z,24.98
2018-04-30T09:21:32.176Z,24.90
2018-04-30T09:23:58.713Z,24.99
2018-04-30T09:26:25.105Z,25.01
2018-04-30T09:28:51.605Z,25.03
2018-04-30T09:31:18.116Z,25.08
2018-04-30T09:33:44.533Z,25.01
2018-04-30T09:36:10.903Z,24.99
2018-04-30T09:38:37.400Z,25.02
2018-04-30T09:41:04.134Z,25.21
2018-04-30T09:43:30.506Z,25.28
2018-04-30T09:45:56.965Z,25.37
2018-04-30T09:48:23.450Z,25.22
2018-04-30T09:50:49.908Z,25.18
2018-04-30T09:53:16.316Z,25.25
2018-04-30T09:55:42.886Z,25.28
2018-04-30T09:58:09.393Z,25.49
2018-04-30T10:00:35.855Z,25.44
2018-04-30T10:03:02.203Z,25.34
2018-04-30T10:05:28.548Z,25.23
2018-04-30T10:07:54.904Z,25.13
2018-04-30T10:10:21.236Z,25.25
2018-04-30T10:12:47.592Z,25.24
2018-04-30T10:15:13.995Z,25.37
2018-04-30T10:17:40.372Z,25.28
2018-04-30T10:20:06.797Z,25.42
2018-04-30T10:22:33.201Z,25.32
2018-04-30T10:24:59.581Z,25.29
2018-04-30T10:27:26.012Z,25.32
2018-04-30T10:29:52.349Z,25.39
2018-04-30T10:32:18.672Z,25.40
2018-04-30T10:34:45.056Z,25.38
2018-04-30T10:37:11.400Z,25.50
2018-04-30T10:39:37.827Z,25.58
2018-04-30T10:42:04.199Z,25.37
2018-04-30T10:44:30.525Z,25.49
2018-04-30T10:46:56.888Z,25.50
2018-04-30T10:49:23.251Z,25.46
2018-04-30T10:51:49.688Z,25.42
2018-04-30T10:54:16.035Z,25.49
2018-04-30T10:56:42.494Z,25.50
2018-04-30T10:59:08.834Z,25.49
2018-04-30T11:01:35.218Z,25.29
2018-04-30T11:04:01.606Z,25.43
2018-04-30T11:06:27.953Z,25.60
2018-04-30T11:08:54.320Z,25.65
2018-04-30T11:11:20.706Z,25.49
2018-04-30T11:13:47.050Z,25.67
2018-04-30T11:16:13.413Z,25.62
2018-04-30T11:18:39.815Z,25.60
2018-04-30T11:21:06.258Z,25.49
2018-04-30T11:23:32.665Z,25.48
2018-04-30T11:25:59.073Z,25.48
2018-04-30T11:28:25.446Z,25.43
2018-04-30T11:30:51.815Z,25.52
2018-04-30T11:33:18.149Z,25.44
2018-04-30T11:35:44.528Z,25.38
2018-04-30T11:38:10.889Z,25.37
2018-04-30T11:40:37.235Z,25.45
2018-04-30T11:43:03.694Z,25.59
2018-04-30T11:45:30.094Z,25.49
2018-04-30T11:47:56.543Z,25.40
2018-04-30T11:50:22.936Z,25.43
2018-04-30T11:52:49.408Z,25.56
2018-04-30T11:55:15.794Z,25.58
2018-04-30T11:57:42.142Z,25.61
2018-04-30T12:00:08.569Z,25.56
2018-04-30T12:02:34.966Z,25.50
2018-04-30T12:05:01.460Z,25.64
2018-04-30T12:07:27.769Z,25.68
2018-04-30T12:09:54.172Z,25.48
2018-04-30T12:12:20.519Z,25.46
2018-04-30T12:14:46.889Z,25.49
2018-04-30T12:17:13.251Z,25.47
2018-04-30T12:19:39.724Z,25.60
2018-04-30T12:22:06.209Z,25.59
2018-04-30T12:24:32.647Z,25.53
2018-04-30T12:26:59.010Z,25.57
2018-04-30T12:29:25.420Z,25.51
2018-04-30T12:31:51.953Z,25.58
2018-04-30T12:34:18.364Z,25.56
2018-04-30T12:36:44.724Z,25.46
2018-04-30T12:39:11.832Z,25.58
2018-04-30T12:41:38.330Z,25.51
2018-04-30T12:44:04.776Z,25.52
2018-04-30T12:46:31.173Z,25.52
2018-04-30T12:48:57.628Z,25.51
2018-04-30T12:51:23.987Z,25.47
2018-04-30T12:53:50.396Z,25.46
2018-04-30T12:56:16.834Z,25.60
2018-04-30T12:58:43.181Z,25.63
2018-04-30T13:01:09.559Z,25.57
2018-04-30T13:03:35.953Z,25.61
2018-04-30T13:06:02.290Z,25.54
2018-04-30T13:08:28.693Z,25.72
2018-04-30T13:10:55.122Z,25.82
2018-04-30T13:13:21.480Z,25.66
2018-04-30T13:15:47.950Z,25.71
2018-04-30T13:18:14.325Z,25.83
2018-04-30T13:20:40.757Z,25.82
2018-04-30T13:23:07.129Z,25.80
2018-04-30T13:25:33.582Z,25.75
2018-04-30T13:28:00.300Z,25.69
2018-04-30T13:30:26.671Z,25.66
2018-04-30T13:32:53.078Z,25.73
2018-04-30T13:35:19.431Z,25.71
2018-04-30T13:37:45.859Z,25.73
2018-04-30T13:40:12.236Z,25.75
2018-04-30T13:42:38.674Z,25.66
2018-04-30T13:45:05.165Z,25.79
2018-04-30T13:47:31.572Z,25.76
2018-04-30T13:49:59.268Z,25.69
2018-04-30T13:52:25.648Z,25.76
2018-04-30T13:54:52.037Z,25.73
2018-04-30T13:57:18.821Z,25.64
2018-04-30T13:59:45.192Z,25.76
2018-04-30T14:02:11.538Z,25.51
2018-04-30T14:04:37.912Z,25.54
2018-04-30T14:07:04.263Z,25.65
2018-04-30T14:09:30.675Z,25.68
2018-04-30T14:11:57.031Z,25.60
2018-04-30T14:14:23.378Z,25.65
2018-04-30T14:16:49.751Z,25.62
2018-04-30T14:19:16.259Z,25.61
2018-04-30T14:21:42.579Z,25.75
2018-04-30T14:24:09.225Z,25.62
2018-04-30T14:26:35.617Z,25.69
2018-04-30T14:29:01.963Z,25.64
2018-04-30T14:31:28.399Z,25.61
2018-04-30T14:33:54.784Z,25.60
2018-04-30T14:36:21.289Z,25.62
2018-04-30T14:38:47.604Z,25.64
2018-04-30T14:41:14.013Z,25.68
2018-04-30T14:43:40.419Z,25.60
2018-04-30T14:46:06.773Z,25.62
2018-04-30T14:48:33.132Z,25.49
2018-04-30T14:50:59.502Z,25.57
2018-04-30T14:53:25.916Z,25.60
2018-04-30T14:55:52.284Z,25.58
2018-04-30T14:58:18.838Z,25.54
2018-04-30T15:00:45.236Z,25.61
2018-04-30T15:03:11.578Z,25.56
2018-04-30T15:05:37.908Z,25.50
2018-04-30T15:08:04.231Z,25.45
2018-04-30T15:10:30.588Z,25.42
2018-04-30T15:12:56.908Z,25.51
2018-04-30T15:15:23.228Z,25.45
2018-04-30T15:17:49.634Z,25.50
2018-04-30T15:20:16.116Z,25.54
2018-04-30T15:22:42.453Z,25.64
2018-04-30T15:25:08.839Z,25.49
2018-04-30T15:27:35.169Z,25.52
2018-04-30T15:30:01.495Z,25.44
2018-04-30T15:32:27.872Z,25.52
2018-04-30T15:34:54.192Z,25.40
2018-04-30T15:37:20.588Z,25.29
2018-04-30T15:39:46.971Z,25.31
2018-04-30T15:42:13.311Z,25.42
2018-04-30T15:44:39.636Z,25.35
2018-04-30T15:47:06.026Z,25.29
2018-04-30T15:49:32.340Z,25.39
2018-04-30T15:51:58.697Z,25.17
2018-04-30T15:54:25.054Z,25.37
2018-04-30T15:56:51.387Z,25.50
2018-04-30T15:59:17.705Z,25.42
2018-04-30T16:01:44.029Z,25.42
2018-04-30T16:04:10.433Z,25.46
2018-04-30T16:06:36.762Z,25.43
2018-04-30T16:09:03.102Z,25.39
2018-04-30T16:11:29.428Z,25.34
2018-04-30T16:13:55.861Z,25.32
2018-04-30T16:16:22.171Z,25.22
2018-04-30T16:18:48.504Z,25.35
2018-04-30T16:21:14.857Z,25.35
2018-04-30T16:23:41.179Z,25.34
2018-04-30T16:26:07.500Z,25.29
2018-04-30T16:28:35.021Z,25.14
2018-04-30T16:31:01.388Z,25.05
2018-04-30T16:33:27.751Z,25.09
2018-04-30T16:35:54.085Z,25.12
2018-04-30T16:38:20.409Z,25.10
2018-04-30T16:40:46.905Z,25.05
2018-04-30T16:43:13.226Z,25.06
2018-04-30T16:45:39.553Z,25.03
2018-04-30T16:48:05.943Z,25.01
2018-04-30T16:50:32.264Z,25.00
2018-04-30T16:52:58.639Z,24.93
2018-04-30T16:55:24.970Z,24.65
2018-04-30T16:57:51.300Z,24.64
2018-04-30T17:00:17.629Z,24.80
2018-04-30T17:02:43.952Z,24.89
2018-04-30T17:05:10.269Z,24.87
2018-04-30T17:07:36.684Z,24.77
2018-04-30T17:10:03.152Z,24.76
2018-04-30T17:12:29.584Z,24.77
2018-04-30T17:14:55.903Z,24.87
2018-04-30T17:17:22.262Z,24.86
2018-04-30T17:19:48.687Z,24.79
2018-04-30T17:22:15.041Z,24.79
2018-04-30T17:24:41.357Z,24.82
2018-04-30T17:27:07.766Z,24.79
2018-04-30T17:29:34.187Z,24.82
2018-04-30T17:32:00.481Z,24.79
2018-04-30T17:34:26.932Z,24.78
2018-04-30T17:36:53.266Z,24.80
2018-04-30T17:39:19.625Z,24.82
2018-04-30T17:41:45.956Z,24.78
2018-04-30T17:44:12.281Z,24.80
2018-04-30T17:46:38.617Z,24.80
2018-04-30T17:49:04.952Z,24.83
2018-04-30T17:51:31.305Z,24.83
2018-04-30T17:53:57.617Z,24.83
2018-04-30T17:56:23.980Z,24.86
2018-04-30T17:58:50.331Z,24.85
2018-04-30T18:01:16.711Z,24.85
2018-04-30T18:03:43.026Z,24.85
2018-04-30T18:06:09.360Z,24.86
2018-04-30T18:08:35.699Z,24.86
2018-04-30T18:11:02.043Z,24.87
2018-04-30T18:13:28.365Z,24.89
2018-04-30T18:15:54.692Z,24.88
2018-04-30T18:18:21.077Z,24.89
2018-04-30T18:20:47.408Z,24.89
2018-04-30T18:23:13.765Z,24.91
2018-04-30T18:25:40.082Z,24.88
2018-04-30T18:28:06.433Z,24.88
2018-04-30T18:30:32.759Z,24.89
2018-04-30T18:32:59.151Z,24.84
2018-04-30T18:35:25.480Z,24.78
2018-04-30T18:37:52.856Z,24.84
2018-04-30T18:40:19.177Z,24.85
2018-04-30T18:45:18.159Z,24.87
2018-04-30T18:47:44.488Z,24.86
2018-04-30T18:50:10.825Z,24.83
2018-04-30T18:52:37.148Z,24.85
2018-04-30T18:55:03.468Z,24.83
2018-04-30T18:57:29.825Z,24.85
2018-04-30T18:59:56.172Z,24.86
2018-04-30T19:02:22.496Z,24.82
2018-04-30T19:04:48.807Z,24.79
2018-04-30T19:07:15.195Z,24.79
2018-04-30T19:09:41.512Z,24.75
2018-04-30T19:12:09.645Z,24.74
2018-04-30T19:14:35.968Z,24.73
2018-04-30T19:17:02.657Z,24.76
2018-04-30T19:19:29.033Z,24.77
2018-04-30T19:21:55.489Z,24.76
2018-04-30T19:24:21.837Z,24.73
2018-04-30T19:26:48.152Z,24.71
2018-04-30T19:29:15.332Z,24.70
2018-04-30T19:31:41.777Z,24.69
2018-04-30T19:34:08.029Z,24.66
2018-04-30T19:36:34.360Z,24.69
2018-04-30T19:39:00.685Z,24.65
2018-04-30T19:41:26.996Z,24.65
2018-04-30T19:43:53.322Z,24.65
2018-04-30T19:46:19.657Z,24.65
2018-04-30T19:48:46.688Z,24.63
2018-04-30T19:51:13.007Z,24.63
2018-04-30T19:53:39.391Z,24.64
2018-04-30T19:56:05.721Z,24.66
2018-04-30T19:58:32.082Z,24.62
2018-04-30T20:00:58.424Z,24.64
2018-04-30T20:03:24.816Z,24.65
2018-04-30T20:05:51.154Z,24.64
2018-04-30T20:08:17.496Z,24.61
2018-04-30T20:10:43.817Z,24.59
2018-04-30T20:13:10.192Z,24.59
2018-04-30T20:15:36.517Z,24.57
2018-04-30T20:18:02.832Z,24.58
2018-04-30T20:20:29.236Z,24.58
2018-04-30T20:22:55.531Z,24.59
2018-04-30T20:25:21.849Z,24.59
2018-04-30T20:27:49.520Z,24.61
2018-04-30T20:30:15.892Z,24.59
2018-04-30T20:32:42.301Z,24.57
2018-04-30T20:35:08.576Z,24.59
2018-04-30T20:37:34.890Z,24.66
2018-04-30T20:40:01.226Z,24.61
2018-04-30T20:42:27.650Z,24.59
2018-04-30T20:44:54.040Z,24.58
2018-04-30T20:47:20.352Z,24.58
2018-04-30T20:49:46.663Z,24.56
2018-04-30T20:52:14.691Z,24.56
2018-04-30T20:54:41.006Z,24.56
2018-04-30T20:57:07.352Z,24.51
2018-04-30T20:59:33.721Z,24.49
2018-04-30T21:02:00.057Z,24.48
2018-04-30T21:04:26.402Z,24.49
2018-04-30T21:06:52.744Z,24.50
2018-04-30T21:09:19.073Z,24.47
2018-04-30T21:11:45.391Z,24.46
2018-04-30T21:14:11.718Z,24.47
2018-04-30T21:16:38.148Z,24.46
2018-04-30T21:19:04.526Z,24.43
2018-04-30T21:21:30.921Z,24.41
2018-04-30T21:23:57.409Z,24.40
2018-04-30T21:26:23.748Z,24.39
2018-04-30T21:28:50.069Z,24.38
2018-04-30T21:31:16.401Z,24.36
2018-04-30T21:33:42.766Z,24.36
2018-04-30T21:36:09.104Z,24.35
2018-04-30T21:38:35.494Z,24.33
2018-04-30T21:41:01.821Z,24.32
2018-04-30T21:43:28.157Z,24.29
2018-04-30T21:45:54.720Z,24.30
2018-04-30T21:48:21.039Z,24.29
2018-04-30T21:50:47.436Z,24.30
2018-04-30T21:53:13.752Z,24.27
2018-04-30T21:55:40.128Z,24.25
2018-04-30T21:58:06.513Z,24.25
2018-04-30T22:00:32.840Z,24.27
2018-04-30T22:02:59.724Z,24.24
2018-04-30T22:05:26.044Z,24.21
2018-04-30T22:07:52.392Z,24.18
2018-04-30T22:10:18.710Z,24.18
2018-04-30T22:12:45.021Z,24.20
2018-04-30T22:15:11.333Z,24.19
2018-04-30T22:17:37.667Z,24.18
2018-04-30T22:22:36.788Z,24.15
2018-04-30T22:25:03.127Z,24.12
2018-04-30T22:27:29.439Z,24.11
2018-04-30T22:29:55.762Z,24.12
2018-04-30T22:32:22.084Z,24.11
2018-04-30T22:34:48.400Z,24.06
2018-04-30T22:37:14.714Z,24.08
2018-04-30T22:39:41.064Z,24.08
2018-04-30T22:42:07.384Z,24.05
2018-04-30T22:44:33.704Z,24.04
2018-04-30T22:47:00.012Z,24.06
2018-04-30T22:49:26.632Z,24.02
2018-04-30T22:51:52.957Z,24.03
2018-04-30T22:54:19.273Z,24.04
2018-04-30T22:56:45.595Z,24.03
2018-04-30T22:59:11.971Z,24.01
2018-04-30T23:01:38.584Z,23.98
2018-04-30T23:04:04.906Z,23.98
2018-04-30T23:06:31.243Z,23.97
2018-04-30T23:08:57.579Z,23.96
2018-04-30T23:11:23.940Z,23.96
2018-04-30T23:13:50.532Z,23.96
2018-04-30T23:16:16.848Z,23.92
2018-04-30T23:18:43.168Z,23.92
2018-04-30T23:21:09.632Z,23.92
2018-04-30T23:23:35.948Z,23.94
2018-04-30T23:26:02.274Z,23.92
2018-04-30T23:28:28.612Z,23.90
2018-04-30T23:30:54.931Z,23.90
2018-04-30T23:33:21.249Z,23.88
2018-04-30T23:35:47.587Z,23.88
2018-04-30T23:38:13.922Z,23.88
2018-04-30T23:40:40.243Z,23.87
2018-04-30T23:43:06.607Z,23.86
2018-04-30T23:45:33.101Z,23.85
2018-04-30T23:47:59.418Z,23.84
2018-04-30T23:50:25.763Z,23.83
2018-04-30T23:52:52.139Z,23.84
2018-04-30T23:55:18.449Z,23.83
2018-04-30T23:57:44.816Z,23.83
